createdAt,value
2023-03-26T08:05:39.817Z,0.30
2023-03-26T08:09:02.227Z,0.40
2023-03-26T08:12:49.392Z,1.20
2023-03-26T08:16:27.678Z,0.70
2023-03-26T08:20:32.498Z,0.40
2023-03-26T08:24:39.186Z,1.20
2023-03-26T08:28:02.572Z,0.40
2023-03-26T08:30:38.141Z,0.80
2023-03-26T08:33:27.526Z,1.40
2023-03-26T08:35:57.935Z,1.10
2023-03-26T08:38:31.049Z,0.90
2023-03-26T08:41:09.017Z,0.20
2023-03-26T08:51:20.259Z,0.50
2023-03-26T08:55:09.886Z,0.40
2023-03-26T09:02:30.530Z,0.60
2023-03-26T09:05:35.672Z,0.40
2023-03-26T09:09:00.432Z,0.80
2023-03-26T09:11:42.396Z,0.20
2023-03-26T09:15:06.680Z,0.30
2023-03-26T09:17:55.986Z,0.30
2023-03-26T09:20:53.491Z,0.30
2023-03-26T09:24:25.582Z,0.70
2023-03-26T09:27:47.246Z,0.20
2023-03-26T09:31:55.983Z,0.50
2023-03-26T09:35:06.008Z,0.40
2023-03-26T09:38:35.737Z,0.10
2023-03-26T09:42:06.885Z,0.30
2023-03-26T09:45:23.019Z,0.40
2023-03-26T09:48:24.920Z,0.40
2023-03-26T09:52:10.476Z,0.20
2023-03-26T09:55:15.575Z,0.50
2023-03-26T09:58:20.881Z,0.70
2023-03-26T10:01:41.291Z,0.60
2023-03-26T10:04:41.145Z,0.30
2023-03-26T10:07:56.069Z,0.70
2023-03-26T10:13:49.513Z,0.60
2023-03-26T10:16:52.720Z,0.40
2023-03-26T10:20:02.415Z,0.50
2023-03-26T10:23:13.362Z,0.90
2023-03-26T10:26:25.718Z,0.50
2023-03-26T10:29:12.795Z,0.90
2023-03-26T10:32:06.673Z,1.00
2023-03-26T10:35:08.620Z,0.70
2023-03-26T10:38:13.111Z,0.30
2023-03-26T10:41:08.822Z,0.90
2023-03-26T10:44:08.385Z,0.60
2023-03-26T10:46:52.427Z,0.40
2023-03-26T10:49:39.870Z,0.30
2023-03-26T10:52:44.032Z,0.00
2023-03-26T10:59:52.325Z,0.20
2023-03-26T11:10:21.866Z,0.30
2023-03-26T11:13:23.471Z,0.90
2023-03-26T11:16:06.644Z,0.40
2023-03-26T11:19:08.891Z,0.40
2023-03-26T11:22:41.597Z,0.40
2023-03-26T11:26:04.603Z,0.40
2023-03-26T11:28:41.614Z,0.90
2023-03-26T11:32:02.679Z,0.40
2023-03-26T11:35:53.762Z,0.40
2023-03-26T11:39:10.627Z,0.10
2023-03-26T11:42:50.566Z,0.10
2023-03-26T11:45:58.078Z,0.70
2023-03-26T11:49:11.315Z,0.30
2023-03-26T11:51:49.113Z,0.00
2023-03-26T11:54:23.000Z,0.50
2023-03-26T11:57:07.197Z,0.30
2023-03-26T12:00:21.099Z,0.00
2023-03-26T12:02:56.022Z,0.10
2023-03-26T12:05:49.164Z,0.70
2023-03-26T12:08:33.065Z,0.20
2023-03-26T12:11:28.360Z,0.10
2023-03-26T12:14:27.386Z,0.30
2023-03-26T12:17:34.067Z,0.40
2023-03-26T12:20:26.470Z,0.10
2023-03-26T12:23:06.688Z,0.20
2023-03-26T12:26:08.537Z,0.70
2023-03-26T12:28:37.103Z,0.30
2023-03-26T12:31:19.599Z,0.60
2023-03-26T12:34:36.510Z,0.50
2023-03-26T12:37:47.110Z,0.20
2023-03-26T12:40:37.354Z,0.50
2023-03-26T12:47:56.208Z,0.70
2023-03-26T12:50:11.373Z,0.50
2023-03-26T12:53:39.042Z,0.30
2023-03-26T13:00:46.948Z,0.80
2023-03-26T13:04:06.305Z,0.30
2023-03-26T13:07:01.487Z,0.10
2023-03-26T13:10:23.559Z,1.00
2023-03-26T13:13:57.787Z,0.30
2023-03-26T13:17:19.930Z,0.20
2023-03-26T17:50:41.881Z,4.30
2023-03-26T17:53:24.472Z,6.60
2023-03-26T17:56:03.333Z,4.10
2023-03-26T17:58:56.939Z,2.90
2023-03-26T18:01:50.429Z,6.10
2023-03-26T18:04:39.539Z,4.80
2023-03-26T18:07:36.082Z,3.30
2023-03-26T18:10:57.174Z,4.50
